Latest Weather Observations for Walpole North

IDW60801

Issued at 5:05 pm WST Tuesday 16 September 2014 (issued every 30 minutes, with the page automatically refreshed every 10 minutes)

About weather observations | Map of weather stations | Latest weather observations for WA | Other Formats
Station Details ID: 009998 Name: NORTH WALPOLE Lat: -34.95 Lon: 116.72 Height: 73.0 m
Data from the previous 72 hours. | See also: Recent months at Walpole North
Date/Time
WST
Temp
°C
App
Temp
°C
Dew
Point
Rel
Hum
%
Delta-T
°C
Wind Press
QNH
hPa
Press
MSL
hPa
Rain
since 9 am
mm
Dir
 
Spd
km/h
Gust
km/h
Spd
kts
Gust
kts
16/05:00pm 15.4 12.0 10.6 73 2.5 ESE 19 30 10 16 1019.5 1019.5 -
16/04:30pm 16.1 12.8 10.8 71 2.8 SE 19 28 10 15 1019.5 1019.5 -
16/04:00pm 16.3 13.8 11.2 72 2.7 SSE 15 26 8 14 1019.5 1019.5 -
16/03:30pm 16.9 15.0 11.8 72 2.8 S 13 24 7 13 1019.6 1019.6 -
16/03:00pm 17.1 15.3 12.0 72 2.8 S 13 22 7 12 1019.5 1019.5 -
16/02:30pm 16.6 14.2 11.3 71 2.9 SSE 15 26 8 14 1020.0 1020.0 -
16/02:00pm 17.1 15.2 11.8 71 2.9 S 13 20 7 11 1020.2 1020.2 -
16/01:30pm 17.3 15.6 11.3 68 3.3 SSE 11 19 6 10 1020.2 1020.2 -
16/12:30pm 17.4 15.3 11.2 67 3.4 S 13 20 7 11 1021.0 1021.0 0.0
16/12:00pm 17.8 15.7 8.1 53 5.0 E 9 15 5 8 1021.6 1021.6 0.0
16/11:30am 16.8 14.9 9.2 61 4.0 ENE 9 17 5 9 1022.0 1022.0 0.0
16/11:00am 16.8 14.3 9.7 63 3.7 E 13 19 7 10 1022.5 1022.5 0.0
16/10:30am 16.5 14.5 10.1 66 3.4 NNE 11 19 6 10 1022.9 1022.9 0.0
16/10:00am 15.8 13.7 9.9 68 3.1 ENE 11 17 6 9 1023.2 1023.2 0.0
16/09:30am 15.6 13.3 10.4 71 2.7 NE 13 19 7 10 1023.5 1023.5 0.0
16/09:00am 14.6 13.4 11.7 83 1.6 NE 9 15 5 8 1023.5 1023.5 0.0
16/08:30am 13.1 12.9 12.9 99 0.1 NNE 6 11 3 6 1023.1 1023.1 0.0
16/08:00am 9.4 9.3 9.3 99 0.0 CALM 0 0 0 0 1023.2 1023.2 0.0
16/07:30am 7.8 7.3 7.7 99 0.0 CALM 0 0 0 0 1023.3 1023.3 0.0
16/07:00am 6.1 5.2 6.0 99 0.0 CALM 0 0 0 0 1023.0 1023.0 0.0
16/06:30am 6.4 5.6 6.3 99 0.0 CALM 0 0 0 0 1023.0 1023.0 0.0
16/06:00am 6.3 5.4 6.0 98 0.1 S 0 0 0 0 1023.0 1023.0 0.0
16/05:30am 5.9 4.9 5.6 98 0.1 CALM 0 0 0 0 1022.9 1022.9 0.0
16/05:00am 5.9 4.9 5.6 98 0.1 CALM 0 0 0 0 1022.8 1022.8 0.0
16/04:30am 5.3 4.1 4.7 96 0.3 CALM 0 0 0 0 1022.5 1022.5 0.0
16/04:00am 6.4 5.5 6.0 97 0.2 CALM 0 0 0 0 1022.7 1022.7 0.0
16/03:30am 5.8 4.7 5.1 95 0.3 CALM 0 0 0 0 1022.7 1022.7 0.0
16/03:00am 6.2 5.2 5.5 95 0.3 CALM 0 0 0 0 1022.7 1022.7 0.0
16/02:30am 6.9 6.0 6.2 95 0.3 CALM 0 0 0 0 1022.9 1022.9 0.0
16/02:00am 7.1 6.3 6.4 95 0.3 CALM 0 0 0 0 1023.1 1023.1 0.0
16/01:30am 6.6 5.6 5.6 93 0.4 CALM 0 0 0 0 1023.3 1023.3 0.0
16/01:00am 6.8 5.8 5.6 92 0.5 CALM 0 0 0 0 1023.7 1023.7 0.0
16/12:30am 6.9 5.9 5.5 91 0.6 CALM 0 0 0 0 1023.7 1023.7 0.0
16/12:00am 7.7 6.8 6.2 90 0.7 S 0 0 0 0 1023.7 1023.7 0.0
 
Date/Time
WST
Temp
°C
App
Temp
°C
Dew
Point
Rel
Hum
%
Delta-T
°C
Wind Press
QNH
hPa
Press
MSL
hPa
Rain
since 9 am
mm
Dir
 
Spd
km/h
Gust
km/h
Spd
kts
Gust
kts
15/11:30pm 7.7 6.7 5.8 88 0.9 CALM 0 0 0 0 1023.9 1023.9 0.0
15/11:00pm 8.0 7.0 5.8 86 1.0 CALM 0 0 0 0 1024.3 1024.3 0.0
15/10:30pm 8.4 7.5 6.0 85 1.1 CALM 0 0 0 0 1024.7 1024.7 0.0
15/10:00pm 8.8 7.8 5.7 81 1.4 CALM 0 0 0 0 1025.0 1025.0 0.0
15/09:30pm 9.0 8.0 5.7 80 1.5 CALM 0 0 0 0 1025.0 1025.0 0.0
15/09:00pm 8.7 7.6 4.9 77 1.7 CALM 0 0 0 0 1025.2 1025.2 0.0
15/08:30pm 9.6 8.6 5.6 76 1.8 CALM 0 0 0 0 1025.2 1025.2 0.0
15/08:00pm 9.9 8.9 5.5 74 2.0 CALM 0 0 0 0 1025.2 1025.2 0.0
15/07:30pm 10.6 9.6 5.6 71 2.3 CALM 0 0 0 0 1025.0 1025.0 0.0
15/07:00pm 10.7 9.8 6.1 73 2.1 CALM 0 0 0 0 1024.8 1024.8 0.0
15/06:30pm 11.5 10.6 6.0 69 2.6 CALM 0 0 0 0 1024.6 1024.6 0.0
15/06:00pm 12.4 11.5 6.0 65 3.0 CALM 0 0 0 0 1024.6 1024.6 0.0
15/05:30pm 13.4 12.2 6.3 62 3.4 S 2 9 1 5 1024.4 1024.4 0.0
15/05:00pm 14.2 12.0 6.1 58 3.9 SSE 7 15 4 8 1024.1 1024.1 0.0
15/04:30pm 14.7 11.8 6.5 58 4.0 S 11 20 6 11 1024.0 1024.0 0.0
15/04:00pm 14.9 12.3 6.0 55 4.3 SSE 9 19 5 10 1023.8 1023.8 0.0
15/03:30pm 15.2 12.5 7.5 60 3.8 S 11 20 6 11 1023.8 1023.8 0.0
15/03:00pm 15.4 13.0 7.2 58 4.0 S 9 19 5 10 1023.8 1023.8 0.0
15/02:30pm 15.6 13.0 7.6 59 4.0 S 11 17 6 9 1023.8 1023.8 0.0
15/02:00pm 15.6 13.0 7.6 59 4.0 SSE 11 19 6 10 1023.8 1023.8 0.0
15/01:30pm 15.7 13.1 7.7 59 4.0 SSE 11 20 6 11 1024.0 1024.0 0.0
15/01:00pm 15.7 13.5 7.7 59 4.0 S 9 20 5 11 1024.1 1024.1 0.0
15/12:30pm 15.7 12.9 7.0 56 4.3 SSW 11 19 6 10 1024.2 1024.2 0.0
15/12:00pm 14.9 13.0 6.5 57 4.1 S 6 15 3 8 1024.5 1024.5 0.0
15/11:30am 15.0 13.3 6.0 55 4.3 SW 4 11 2 6 1024.8 1024.8 0.0
15/11:00am 14.5 13.0 6.6 59 3.8 SW 4 11 2 6 1025.1 1025.1 0.0
15/10:30am 14.8 12.8 6.9 59 3.9 WSW 7 15 4 8 1025.5 1025.5 0.0
15/10:00am 14.3 12.4 6.6 60 3.7 SSW 6 9 3 5 1025.7 1025.7 0.0
15/09:30am 14.2 12.0 7.7 65 3.2 WSW 9 15 5 8 1025.8 1025.8 0.0
15/09:00am 13.4 13.2 8.9 74 2.3 CALM 0 0 0 0 1025.8 1025.8 0.0
15/08:30am 12.6 12.4 9.1 79 1.8 CALM 0 0 0 0 1026.0 1026.0 0.0
15/08:00am 11.1 10.8 8.7 85 1.2 CALM 0 0 0 0 1025.9 1025.9 0.0
15/07:30am 11.0 10.7 8.6 85 1.2 CALM 0 0 0 0 1025.8 1025.8 0.0
15/07:00am 10.5 10.1 8.3 86 1.1 CALM 0 0 0 0 1025.4 1025.4 0.0
15/06:30am 9.7 9.2 8.0 89 0.8 CALM 0 0 0 0 1025.3 1025.3 0.0
15/06:00am 9.1 8.6 7.9 92 0.6 CALM 0 0 0 0 1025.2 1025.2 0.0
15/05:30am 8.9 8.3 7.5 91 0.7 CALM 0 0 0 0 1025.0 1025.0 0.0
15/05:00am 8.8 8.2 7.3 90 0.7 CALM 0 0 0 0 1024.8 1024.8 0.0
15/04:30am 8.9 8.3 7.2 89 0.8 CALM 0 0 0 0 1024.5 1024.5 0.0
15/04:00am 9.3 8.7 7.4 88 0.9 CALM 0 0 0 0 1024.3 1024.3 0.0
15/03:30am 9.1 8.5 7.2 88 0.9 CALM 0 0 0 0 1024.4 1024.4 0.0
15/03:00am 9.4 8.8 7.2 86 1.0 CALM 0 0 0 0 1024.3 1024.3 0.0
15/02:30am 9.4 8.8 7.2 86 1.0 CALM 0 0 0 0 1024.4 1024.4 0.0
15/02:00am 9.8 9.2 7.4 85 1.1 CALM 0 0 0 0 1024.5 1024.5 0.0
15/01:30am 10.3 9.9 8.2 87 1.0 CALM 0 0 0 0 1024.4 1024.4 0.0
15/01:00am 9.3 8.7 7.6 89 0.8 CALM 0 0 0 0 1024.7 1024.7 0.0
15/12:30am 8.9 8.2 7.0 88 0.9 CALM 0 0 0 0 1024.7 1024.7 0.0
15/12:00am 9.1 8.4 6.9 86 1.0 CALM 0 0 0 0 1024.4 1024.4 0.0
 
Date/Time
WST
Temp
°C
App
Temp
°C
Dew
Point
Rel
Hum
%
Delta-T
°C
Wind Press
QNH
hPa
Press
MSL
hPa
Rain
since 9 am
mm
Dir
 
Spd
km/h
Gust
km/h
Spd
kts
Gust
kts
14/11:30pm 8.9 8.1 6.5 85 1.1 CALM 0 0 0 0 1024.3 1024.3 0.0
14/11:00pm 9.3 8.5 6.4 82 1.3 CALM 0 0 0 0 1024.5 1024.5 0.0
14/10:30pm 9.2 8.3 6.1 81 1.4 CALM 0 0 0 0 1024.6 1024.6 0.0
14/10:00pm 10.0 9.3 6.9 81 1.5 CALM 0 0 0 0 1024.7 1024.7 0.0
14/09:30pm 10.1 9.5 7.2 82 1.4 CALM 0 0 0 0 1024.9 1024.9 0.0
14/09:00pm 10.5 9.9 7.6 82 1.4 CALM 0 0 0 0 1024.8 1024.8 0.0
14/08:30pm 11.3 10.9 8.2 81 1.5 CALM 0 0 0 0 1024.8 1024.8 0.0
14/08:00pm 11.8 11.5 8.5 80 1.6 CALM 0 0 0 0 1024.7 1024.7 0.0
14/07:30pm 12.4 12.1 8.7 78 1.9 CALM 0 0 0 0 1024.6 1024.6 0.0
14/07:00pm 12.6 12.4 9.1 79 1.8 CALM 0 0 0 0 1024.4 1024.4 0.0
14/06:30pm 13.2 11.7 9.1 76 2.1 SW 7 11 4 6 1024.2 1024.2 0.0
14/06:00pm 13.5 12.2 9.2 75 2.2 SW 6 11 3 6 1023.8 1023.8 0.0
14/05:30pm 14.1 12.8 9.9 76 2.2 SW 7 15 4 8 1023.5 1023.5 0.0
14/05:00pm 14.2 12.7 10.4 78 2.0 SSW 9 13 5 7 1023.1 1023.1 0.0
14/04:30pm 14.6 13.3 11.2 80 1.8 SSW 9 15 5 8 1022.7 1022.7 0.0
14/04:00pm 14.3 12.1 10.9 80 1.8 SSW 13 20 7 11 1022.6 1022.6 0.0
14/03:30pm 14.5 13.4 11.8 84 1.5 S 9 20 5 11 1022.4 1022.4 0.0
14/03:00pm 14.6 13.4 12.8 89 1.0 SSW 11 17 6 9 1022.2 1022.2 0.0
14/02:30pm 13.9 11.8 12.5 91 0.8 SSW 15 20 8 11 1022.1 1022.1 0.0
14/02:00pm 14.2 11.9 12.9 92 0.7 SSW 17 26 9 14 1021.8 1021.8 0.0
14/01:30pm 14.5 11.3 13.0 91 0.8 SSW 22 32 12 17 1021.5 1021.5 0.0
14/01:00pm 15.6 13.6 13.8 89 1.0 S 17 28 9 15 1021.2 1021.2 0.0
14/12:30pm 17.9 14.7 13.2 74 2.7 W 22 37 12 20 1021.0 1021.0 0.0
14/12:00pm 19.5 17.1 13.7 69 3.3 W 19 28 10 15 1020.9 1020.9 0.0
14/11:30am 17.8 16.4 12.3 70 3.1 W 11 17 6 9 1020.9 1020.9 0.0
14/11:00am 17.6 15.2 12.5 72 2.8 WNW 17 24 9 13 1021.0 1021.0 0.0
14/10:30am 17.2 14.6 11.9 71 2.9 WNW 17 30 9 16 1021.1 1021.1 0.0
14/10:00am 16.1 13.0 11.7 75 2.4 WNW 19 24 10 13 1021.3 1021.3 0.0
14/09:30am 16.1 13.0 11.5 74 2.5 NW 19 24 10 13 1021.1 1021.1 0.0
14/09:00am 15.9 13.1 11.3 74 2.5 NW 17 24 9 13 1021.2 1021.2 0.0
14/08:30am 14.6 11.9 10.2 75 2.3 NW 15 24 8 13 1021.3 1021.3 0.0
14/08:00am 13.6 11.1 9.8 78 2.0 NW 13 26 7 14 1021.0 1021.0 0.0
14/07:30am 12.2 12.0 9.2 82 1.5 CALM 0 6 0 3 1021.0 1021.0 0.0
14/07:00am 11.9 10.1 9.5 85 1.2 N 9 15 5 8 1020.7 1020.7 0.0
14/06:30am 10.1 9.6 8.0 87 1.0 CALM 0 0 0 0 1020.9 1020.9 0.0
14/06:00am 11.0 9.6 9.4 90 0.8 N 7 15 4 8 1020.9 1020.9 0.0
14/05:30am 10.3 9.0 9.1 92 0.6 N 6 9 3 5 1020.8 1020.8 0.0
14/05:00am 8.4 7.8 7.3 93 0.5 CALM 0 0 0 0 1020.9 1020.9 0.0
14/04:30am 8.1 7.4 6.9 92 0.6 CALM 0 0 0 0 1020.5 1020.5 0.0
14/04:00am 8.0 7.3 6.8 92 0.6 CALM 0 0 0 0 1020.5 1020.5 0.0
14/03:30am 7.7 6.9 6.3 91 0.6 CALM 0 0 0 0 1020.3 1020.3 0.0
14/03:00am 8.4 7.8 7.2 92 0.6 CALM 0 0 0 0 1019.9 1019.9 0.0
14/02:30am 7.8 7.0 6.3 90 0.7 CALM 0 0 0 0 1020.3 1020.3 0.0
14/02:00am 9.2 8.2 7.3 88 0.9 NNW 2 15 1 8 1020.3 1020.3 0.0
14/01:30am 9.8 7.8 8.7 93 0.5 N 9 17 5 9 1020.7 1020.7 0.0
14/01:00am 8.7 8.1 7.6 93 0.5 CALM 0 0 0 0 1021.2 1021.2 0.0
14/12:30am 8.4 7.8 7.2 92 0.6 CALM 0 0 0 0 1021.1 1021.1 0.0
14/12:00am 8.8 8.2 7.6 92 0.6 CALM 0 7 0 4 1021.2 1021.2 0.0
 
Date/Time
WST
Temp
°C
App
Temp
°C
Dew
Point
Rel
Hum
%
Delta-T
°C
Wind Press
QNH
hPa
Press
MSL
hPa
Rain
since 9 am
mm
Dir
 
Spd
km/h
Gust
km/h
Spd
kts
Gust
kts
13/11:30pm 8.8 8.2 7.3 90 0.7 CALM 0 0 0 0 1021.5 1021.5 0.0
13/11:00pm 9.3 8.0 7.7 90 0.8 NE 4 9 2 5 1021.6 1021.6 0.0
13/10:30pm 9.6 9.1 7.9 89 0.8 CALM 0 7 0 4 1022.0 1022.0 0.0
13/10:00pm 9.6 9.1 7.7 88 0.9 CALM 0 0 0 0 1022.2 1022.2 0.0
13/09:30pm 9.9 9.4 7.8 87 1.0 CALM 0 0 0 0 1022.3 1022.3 0.0
13/09:00pm 10.0 9.5 7.8 86 1.1 CALM 0 0 0 0 1022.3 1022.3 0.0
13/08:30pm 10.3 9.8 7.7 84 1.3 CALM 0 0 0 0 1022.2 1022.2 0.0
13/08:00pm 10.8 10.3 7.9 82 1.4 CALM 0 0 0 0 1022.0 1022.0 0.0
13/07:30pm 11.1 10.1 7.4 78 1.8 ENE 2 6 1 3 1021.8 1021.8 0.0
13/07:00pm 11.9 11.4 7.8 76 2.0 CALM 0 2 0 1 1021.6 1021.6 0.0
13/06:30pm 12.3 10.7 8.0 75 2.1 SE 6 6 3 3 1021.4 1021.4 0.0
13/06:00pm 13.1 11.6 8.4 73 2.3 SE 6 9 3 5 1021.0 1021.0 0.0
13/05:30pm 13.9 11.9 8.7 71 2.6 SE 9 13 5 7 1020.9 1020.9 0.0

Other Formats:

Comma delimited format used in spreadsheet applications
http://www.bom.gov.au/fwo/IDW60801/IDW60801.95647.axf

JavaScript Object Notation format (JSON) in row-major order
http://www.bom.gov.au/fwo/IDW60801/IDW60801.95647.json